Time;durP1;ratioP1;P1;durP2;ratioP2;P2;SDS_P1;SDS_P2;PMS_P1;PMS_P2;Temp;Humidity;BMP_temperature;BMP_pressure;BME280_temperature;BME280_humidity;BME280_pressure;Samples;Min_cycle;Max_cycle;Signal;HPM_P1;HPM_P2
2022/10/01 00:01:14;;;;;;;7.37;5.77;;;11.80;99.90;;;;;;4993897;28;20236;-81
2022/10/01 00:03:42;;;;;;;5.97;5.27;;;11.80;99.90;;;;;;4995256;28;20214;-90
2022/10/01 00:06:12;;;;;;;5.60;5.10;;;11.80;99.90;;;;;;4995209;28;20509;-83
2022/10/01 00:08:40;;;;;;;6.50;5.40;;;11.80;99.90;;;;;;4994782;28;20601;-79
2022/10/01 00:11:10;;;;;;;5.67;4.80;;;11.80;99.90;;;;;;4994516;28;20585;-80
2022/10/01 00:13:38;;;;;;;8.60;5.87;;;11.80;99.90;;;;;;4977330;28;20595;-82
2022/10/01 00:16:07;;;;;;;8.47;5.30;;;11.80;99.90;;;;;;4992854;28;20245;-92
2022/10/01 00:18:37;;;;;;;5.73;5.13;;;11.80;99.90;;;;;;4995345;28;20252;-92
2022/10/01 00:21:07;;;;;;;8.83;4.50;;;11.80;99.90;;;;;;4996224;28;20299;-90
2022/10/01 00:23:34;;;;;;;5.00;4.50;;;11.80;99.90;;;;;;4994490;28;20192;-83
2022/10/01 00:26:10;;;;;;;4.97;4.50;;;11.80;99.90;;;;;;4995630;28;20223;-88
2022/10/01 00:28:36;;;;;;;6.33;4.60;;;11.90;99.90;;;;;;4995680;28;20199;-92
2022/10/01 00:31:05;;;;;;;4.60;4.20;;;11.90;99.90;;;;;;4996024;28;20608;-91
2022/10/01 00:33:31;;;;;;;4.53;4.10;;;11.90;99.90;;;;;;5006237;28;20206;-92
2022/10/01 00:36:00;;;;;;;4.83;3.90;;;11.90;99.90;;;;;;5015345;28;20286;-88
2022/10/01 00:38:28;;;;;;;5.20;4.00;;;11.90;99.90;;;;;;5005671;28;20211;-87
2022/10/01 00:40:54;;;;;;;5.80;4.10;;;11.90;99.90;;;;;;4995180;28;20656;-89
2022/10/01 00:43:23;;;;;;;3.90;3.27;;;11.90;99.90;;;;;;4991503;28;20206;-87
2022/10/01 00:45:50;;;;;;;4.57;3.73;;;12.00;99.90;;;;;;5000798;28;20270;-80
2022/10/01 00:48:17;;;;;;;5.40;4.00;;;12.00;99.90;;;;;;4994795;28;20199;-82
2022/10/01 00:50:47;;;;;;;5.13;3.57;;;12.00;99.90;;;;;;4994624;28;20207;-86
2022/10/01 00:53:17;;;;;;;3.67;3.30;;;12.00;99.90;;;;;;4994823;28;20211;-88
2022/10/01 00:55:50;;;;;;;4.43;3.20;;;11.90;99.90;;;;;;4995378;28;20495;-87
2022/10/01 00:58:18;;;;;;;3.20;2.93;;;12.00;99.90;;;;;;4994858;28;20646;-83
2022/10/01 01:00:45;;;;;;;3.30;3.00;;;11.90;99.90;;;;;;5007632;28;20239;-83
2022/10/01 01:03:13;;;;;;;3.70;2.90;;;11.90;99.90;;;;;;5014577;28;20203;-87
2022/10/01 01:05:40;;;;;;;3.20;3.00;;;11.90;99.90;;;;;;5004164;28;20211;-85
2022/10/01 01:08:08;;;;;;;3.20;2.70;;;12.00;99.90;;;;;;4995310;28;20469;-90
2022/10/01 01:10:44;;;;;;;3.13;2.83;;;12.00;99.90;;;;;;4994752;28;20283;-82
2022/10/01 01:13:18;;;;;;;2.77;2.43;;;12.00;99.90;;;;;;4995199;28;20251;-83
2022/10/01 01:15:52;;;;;;;3.60;2.40;;;12.00;99.90;;;;;;5013823;28;20573;-85
2022/10/01 01:18:27;;;;;;;2.40;2.20;;;12.00;99.90;;;;;;5014471;28;20602;-86
2022/10/01 01:21:15;;;;;;;2.73;2.13;;;12.00;99.90;;;;;;5010909;28;21159;-88
2022/10/01 01:24:27;;;;;;;2.37;2.17;;;12.10;99.90;;;;;;4995192;28;20202;-88
2022/10/01 01:27:15;;;;;;;3.07;2.50;;;12.10;99.90;;;;;;4993830;28;20204;-86
2022/10/01 01:29:50;;;;;;;3.53;2.50;;;12.10;99.90;;;;;;4993156;28;20781;-82
2022/10/01 01:32:21;;;;;;;6.73;2.53;;;12.10;99.90;;;;;;4992006;28;20287;-90
2022/10/01 01:34:51;;;;;;;2.77;2.43;;;12.00;99.90;;;;;;4993469;28;20196;-81
2022/10/01 01:37:24;;;;;;;4.47;2.70;;;12.10;99.90;;;;;;4992546;28;20213;-81
2022/10/01 01:39:53;;;;;;;3.60;3.17;;;12.00;99.90;;;;;;4992313;28;20180;-81
2022/10/01 01:42:24;;;;;;;3.20;2.90;;;12.00;99.90;;;;;;4984677;28;20230;-79
2022/10/01 01:44:57;;;;;;;3.60;3.30;;;12.10;99.90;;;;;;4992704;28;20501;-81
2022/10/01 01:47:29;;;;;;;3.40;3.10;;;12.10;99.90;;;;;;4991793;28;20270;-80
2022/10/01 01:49:57;;;;;;;3.40;3.10;;;12.10;99.90;;;;;;4992406;28;20200;-81
2022/10/01 01:52:24;;;;;;;3.60;3.30;;;12.10;99.90;;;;;;4992688;28;20200;-80
2022/10/01 01:54:52;;;;;;;5.53;3.40;;;12.10;99.90;;;;;;4992127;28;20203;-82
2022/10/01 01:57:20;;;;;;;3.87;3.57;;;12.20;99.90;;;;;;4993432;28;20247;-82
2022/10/01 01:59:47;;;;;;;3.70;3.40;;;12.20;99.90;;;;;;4992487;28;20234;-81
2022/10/01 02:02:18;;;;;;;3.90;3.60;;;12.20;99.90;;;;;;4992713;28;20422;-85
2022/10/01 02:04:49;;;;;;;3.57;3.27;;;12.20;99.90;;;;;;4992622;28;20200;-80
2022/10/01 02:07:33;;;;;;;4.30;3.23;;;12.20;99.90;;;;;;4992278;28;20208;-85
2022/10/01 02:10:12;;;;;;;3.93;3.53;;;12.20;99.90;;;;;;4992542;28;20196;-80
2022/10/01 02:12:53;;;;;;;4.13;3.40;;;12.30;99.90;;;;;;4993437;28;20188;-83
2022/10/01 02:15:26;;;;;;;4.20;3.20;;;12.30;99.90;;;;;;4993639;28;20254;-80
2022/10/01 02:18:03;;;;;;;4.77;3.63;;;12.30;99.90;;;;;;4992622;28;20211;-82
2022/10/01 02:20:36;;;;;;;3.27;2.97;;;12.30;99.90;;;;;;4992602;28;20188;-82
2022/10/01 02:23:08;;;;;;;3.23;2.67;;;12.40;99.90;;;;;;5003721;28;20758;-90
2022/10/01 02:25:42;;;;;;;4.23;3.20;;;12.40;99.90;;;;;;5013487;28;20546;-89
2022/10/01 02:28:13;;;;;;;4.17;3.60;;;12.50;99.90;;;;;;5014140;28;20209;-89
2022/10/01 02:30:43;;;;;;;4.60;3.17;;;12.50;99.90;;;;;;5014275;28;20279;-89
2022/10/01 02:33:14;;;;;;;6.80;3.70;;;12.50;99.90;;;;;;5015451;28;20668;-91
2022/10/01 02:35:44;;;;;;;3.97;3.10;;;12.60;99.90;;;;;;5002708;28;20496;-92
2022/10/01 02:38:14;;;;;;;5.53;3.50;;;12.60;99.90;;;;;;4997948;28;20401;-88
2022/10/01 02:40:45;;;;;;;7.20;3.53;;;12.70;99.90;;;;;;4997931;28;20207;-85
2022/10/01 02:43:17;;;;;;;3.93;3.33;;;12.70;99.90;;;;;;4997656;28;20270;-87
2022/10/01 02:45:47;;;;;;;4.80;3.57;;;12.70;99.90;;;;;;4997857;28;20200;-88
2022/10/01 02:48:16;;;;;;;4.37;3.20;;;12.80;99.90;;;;;;4997201;28;20212;-86
2022/10/01 02:50:49;;;;;;;8.47;3.57;;;12.80;99.90;;;;;;4997304;28;20215;-85
2022/10/01 02:53:22;;;;;;;8.30;3.47;;;12.80;99.90;;;;;;4997765;28;20207;-91
2022/10/01 02:55:50;;;;;;;7.20;3.20;;;12.80;99.90;;;;;;4997999;28;20198;-87
2022/10/01 02:58:17;;;;;;;6.60;3.13;;;12.90;99.90;;;;;;5011400;28;20859;-86
2022/10/01 03:00:45;;;;;;;7.03;3.87;;;12.90;99.90;;;;;;5017005;28;20322;-85
2022/10/01 03:03:11;;;;;;;10.37;4.27;;;12.90;99.90;;;;;;5016443;28;20255;-88
2022/10/01 03:05:40;;;;;;;9.17;3.83;;;13.00;99.90;;;;;;5017349;28;20210;-88
2022/10/01 03:08:07;;;;;;;10.23;4.50;;;13.00;99.90;;;;;;4995394;28;20226;-81
2022/10/01 03:10:34;;;;;;;10.97;4.10;;;13.00;99.90;;;;;;4994214;28;20582;-79
2022/10/01 03:13:01;;;;;;;6.13;3.53;;;13.10;99.90;;;;;;4995213;28;20204;-81
2022/10/01 03:15:28;;;;;;;16.10;4.27;;;13.10;99.90;;;;;;4995030;28;20215;-81
2022/10/01 03:17:55;;;;;;;20.37;5.77;;;13.20;99.90;;;;;;4994511;28;20204;-81
2022/10/01 03:20:22;;;;;;;25.07;6.50;;;13.30;99.90;;;;;;4994678;28;20207;-80
2022/10/01 03:22:51;;;;;;;14.90;5.70;;;13.40;99.90;;;;;;4994598;28;20671;-81
2022/10/01 03:25:18;;;;;;;20.87;5.40;;;13.40;99.90;;;;;;4993611;28;20262;-79
2022/10/01 03:27:45;;;;;;;23.57;6.23;;;13.40;99.90;;;;;;4994750;28;20207;-80
2022/10/01 03:30:12;;;;;;;24.83;5.77;;;13.50;99.90;;;;;;4994434;28;20195;-80
2022/10/01 03:32:39;;;;;;;17.80;4.17;;;13.70;99.90;;;;;;4994236;28;20210;-81
2022/10/01 03:35:07;;;;;;;15.17;3.20;;;13.90;99.90;;;;;;4994647;28;20321;-79
2022/10/01 03:37:34;;;;;;;10.23;3.00;;;14.00;99.90;;;;;;5011229;28;20204;-80
2022/10/01 03:40:02;;;;;;;9.73;2.80;;;14.10;99.90;;;;;;5013646;28;20660;-81
2022/10/01 03:42:29;;;;;;;11.40;2.77;;;14.10;99.90;;;;;;5010156;28;20516;-81
2022/10/01 03:44:56;;;;;;;9.47;2.63;;;14.20;99.90;;;;;;4993946;28;20287;-80
2022/10/01 03:47:24;;;;;;;10.23;2.60;;;14.20;99.90;;;;;;4994125;28;20519;-81
2022/10/01 03:49:51;;;;;;;15.57;3.93;;;14.20;99.90;;;;;;4994082;28;20620;-80
2022/10/01 03:52:19;;;;;;;12.43;2.67;;;14.20;99.90;;;;;;4994037;28;20488;-79
2022/10/01 03:54:46;;;;;;;13.90;3.07;;;14.20;99.90;;;;;;4994603;28;20543;-82
2022/10/01 03:57:14;;;;;;;9.73;2.43;;;14.30;99.90;;;;;;4993815;28;20578;-79
2022/10/01 03:59:41;;;;;;;17.20;2.37;;;14.20;99.90;;;;;;4993400;28;20255;-81
2022/10/01 04:02:08;;;;;;;13.53;2.70;;;14.20;99.90;;;;;;4994262;28;20216;-82
2022/10/01 04:04:35;;;;;;;24.63;3.37;;;14.30;99.90;;;;;;4994080;28;20215;-81
2022/10/01 04:07:02;;;;;;;13.70;2.77;;;14.30;99.90;;;;;;4994283;28;20211;-81
2022/10/01 04:09:29;;;;;;;16.37;3.17;;;14.30;99.90;;;;;;4993986;28;20196;-80
2022/10/01 04:11:56;;;;;;;10.53;2.33;;;14.30;99.90;;;;;;4994161;28;20207;-80
2022/10/01 04:14:24;;;;;;;9.07;2.50;;;14.40;99.90;;;;;;4993825;28;20235;-80
2022/10/01 04:16:51;;;;;;;11.60;2.77;;;14.40;99.90;;;;;;4993647;28;20215;-79
2022/10/01 04:19:19;;;;;;;12.43;2.47;;;14.40;99.90;;;;;;4993481;28;20198;-79
2022/10/01 04:21:46;;;;;;;16.80;3.33;;;14.40;99.90;;;;;;4992762;28;20216;-81
2022/10/01 04:24:13;;;;;;;12.23;2.57;;;14.40;99.90;;;;;;4993540;28;20659;-81
2022/10/01 04:26:40;;;;;;;7.50;1.80;;;14.40;99.90;;;;;;4994050;28;20214;-81
2022/10/01 04:29:07;;;;;;;9.70;2.17;;;14.50;99.90;;;;;;4993202;28;20231;-80
2022/10/01 04:31:35;;;;;;;13.87;3.00;;;14.50;99.90;;;;;;4993975;28;20600;-80
2022/10/01 04:34:02;;;;;;;12.03;2.40;;;14.50;99.90;;;;;;4993642;28;20254;-81
2022/10/01 04:36:29;;;;;;;16.00;2.60;;;14.50;99.90;;;;;;4993097;28;20200;-80
2022/10/01 04:38:57;;;;;;;15.47;2.20;;;14.60;99.90;;;;;;4993716;28;20250;-80
2022/10/01 04:41:25;;;;;;;10.80;2.47;;;14.60;99.90;;;;;;4993463;28;20290;-79
2022/10/01 04:43:52;;;;;;;10.60;2.83;;;14.60;99.90;;;;;;4993024;28;20232;-84
2022/10/01 04:46:19;;;;;;;10.50;2.10;;;14.60;99.90;;;;;;5006716;28;20286;-80
2022/10/01 04:48:47;;;;;;;11.77;2.50;;;14.60;99.90;;;;;;5012753;28;20472;-81
2022/10/01 04:51:14;;;;;;;9.53;2.13;;;14.60;99.90;;;;;;5013019;28;20215;-83
2022/10/01 04:53:41;;;;;;;8.13;2.00;;;14.60;99.90;;;;;;5000994;28;20286;-80
2022/10/01 04:56:08;;;;;;;14.17;3.27;;;14.70;99.90;;;;;;4991921;28;20210;-82
2022/10/01 04:58:36;;;;;;;11.17;2.20;;;14.70;99.90;;;;;;4992764;28;20224;-83
2022/10/01 05:01:03;;;;;;;8.97;2.07;;;14.70;99.90;;;;;;4993503;28;20322;-81
2022/10/01 05:03:30;;;;;;;11.23;2.10;;;14.60;99.90;;;;;;4992721;28;20224;-82
2022/10/01 05:05:58;;;;;;;7.63;2.20;;;14.60;99.90;;;;;;4994226;28;20203;-82
2022/10/01 05:08:26;;;;;;;10.93;2.20;;;14.60;99.90;;;;;;4994260;28;20208;-82
2022/10/01 05:10:53;;;;;;;7.33;2.70;;;14.70;99.90;;;;;;4993314;28;20640;-86
2022/10/01 05:13:20;;;;;;;9.60;2.40;;;14.70;99.90;;;;;;5001988;28;20199;-82
2022/10/01 05:15:49;;;;;;;12.20;2.77;;;14.60;99.90;;;;;;5000104;28;20235;-81
2022/10/01 05:18:16;;;;;;;14.50;2.07;;;14.60;99.90;;;;;;4992820;28;20196;-81
2022/10/01 05:20:43;;;;;;;7.70;2.13;;;14.60;99.90;;;;;;4993541;28;20236;-82
2022/10/01 05:23:11;;;;;;;7.23;2.00;;;14.60;99.90;;;;;;4993573;28;20226;-83
2022/10/01 05:25:38;;;;;;;9.27;2.00;;;14.60;99.90;;;;;;4993040;28;20223;-83
2022/10/01 05:28:05;;;;;;;12.10;2.73;;;14.60;99.90;;;;;;4993415;28;20200;-82
2022/10/01 05:30:33;;;;;;;8.70;2.10;;;14.60;99.90;;;;;;4993185;28;20562;-81
2022/10/01 05:33:02;;;;;;;7.43;2.47;;;14.70;99.90;;;;;;4992978;28;20231;-83
2022/10/01 05:35:30;;;;;;;12.93;2.40;;;14.70;99.90;;;;;;4992863;28;20262;-82
2022/10/01 05:37:57;;;;;;;11.47;2.60;;;14.60;99.90;;;;;;4993288;28;20200;-83
2022/10/01 05:40:27;;;;;;;11.47;2.30;;;14.60;99.90;;;;;;4993755;28;20204;-82
2022/10/01 05:42:55;;;;;;;11.87;2.50;;;14.50;99.90;;;;;;4992919;28;20226;-82
2022/10/01 05:45:23;;;;;;;8.77;2.60;;;14.50;99.90;;;;;;4984716;28;20215;-82
2022/10/01 05:47:57;;;;;;;10.43;2.57;;;14.50;99.90;;;;;;4993287;28;20196;-80
2022/10/01 05:50:25;;;;;;;8.17;2.10;;;14.60;99.90;;;;;;4992959;28;20502;-82
2022/10/01 05:52:53;;;;;;;10.93;2.03;;;14.60;99.90;;;;;;4996247;28;20192;-83
2022/10/01 05:55:21;;;;;;;9.67;2.27;;;14.60;99.90;;;;;;5012818;28;20195;-81
2022/10/01 05:57:57;;;;;;;9.40;2.40;;;14.60;99.90;;;;;;4997141;28;20224;-83
2022/10/01 06:00:27;;;;;;;7.57;2.13;;;14.60;99.90;;;;;;4992945;28;20278;-82
2022/10/01 06:02:55;;;;;;;8.97;2.60;;;14.60;99.90;;;;;;4993339;28;20228;-84
2022/10/01 06:05:21;;;;;;;11.47;2.27;;;14.60;99.90;;;;;;4993122;28;20203;-82
2022/10/01 06:07:49;;;;;;;7.20;2.23;;;14.60;99.90;;;;;;5002638;28;20196;-84
2022/10/01 06:10:16;;;;;;;8.90;2.27;;;14.70;99.90;;;;;;5011320;28;20203;-83
2022/10/01 06:12:43;;;;;;;12.43;2.20;;;14.70;99.90;;;;;;5017257;28;20191;-85
2022/10/01 06:15:12;;;;;;;9.37;2.27;;;14.70;99.90;;;;;;5016912;28;20739;-84
2022/10/01 06:17:43;;;;;;;7.27;2.20;;;14.70;99.90;;;;;;5006672;28;20222;-83
2022/10/01 06:20:12;;;;;;;12.63;2.63;;;14.70;99.90;;;;;;4997363;28;20200;-83
2022/10/01 06:22:39;;;;;;;11.27;2.77;;;14.70;99.90;;;;;;4997563;28;20208;-85
2022/10/01 06:25:07;;;;;;;17.00;2.47;;;14.70;99.90;;;;;;4997364;28;20302;-84
2022/10/01 06:27:34;;;;;;;11.30;2.40;;;14.80;99.90;;;;;;5000574;28;20307;-83
2022/10/01 06:30:01;;;;;;;11.33;3.07;;;14.80;99.90;;;;;;5013892;28;20198;-82
2022/10/01 06:32:31;;;;;;;6.88;2.28;;;15.00;99.90;;;;;;5013534;28;20210;-82
2022/10/01 06:34:58;;;;;;;9.67;2.60;;;15.10;99.90;;;;;;5023742;28;20217;-82
2022/10/01 06:37:25;;;;;;;11.03;3.07;;;15.10;99.90;;;;;;5022396;28;20286;-81
2022/10/01 06:39:52;;;;;;;9.67;2.63;;;15.10;99.90;;;;;;5027896;28;20202;-81
2022/10/01 06:42:19;;;;;;;10.97;2.87;;;15.20;99.90;;;;;;5023711;28;20202;-84
2022/10/01 06:44:46;;;;;;;9.67;2.53;;;15.20;99.90;;;;;;5027678;28;20229;-82
2022/10/01 06:47:12;;;;;;;12.50;2.60;;;15.30;99.90;;;;;;5027803;28;20322;-80
2022/10/01 06:49:45;;;;;;;8.20;2.70;;;15.30;99.90;;;;;;5017446;28;20290;-84
2022/10/01 06:54:56;;;;;;;10.23;2.73;;;15.30;99.90;;;;;;5016679;28;20194;-83
2022/10/01 06:57:23;;;;;;;13.00;3.80;;;15.20;99.90;;;;;;5013651;28;20281;-82
2022/10/01 06:59:50;;;;;;;8.60;2.60;;;15.20;99.90;;;;;;5015456;28;20234;-83
2022/10/01 07:02:22;;;;;;;17.93;3.40;;;15.20;99.90;;;;;;5014078;28;20554;-82
2022/10/01 07:04:50;;;;;;;9.17;2.60;;;15.20;99.90;;;;;;5015622;28;20242;-82
2022/10/01 07:07:17;;;;;;;10.83;3.07;;;15.30;99.90;;;;;;5013978;28;20564;-83
2022/10/01 07:09:44;;;;;;;11.67;3.20;;;15.30;99.90;;;;;;5011204;28;20203;-82
2022/10/01 07:12:11;;;;;;;14.93;3.30;;;15.30;99.90;;;;;;4995179;28;20254;-83
2022/10/01 07:14:38;;;;;;;19.03;3.00;;;15.40;99.90;;;;;;4995792;28;20279;-84
2022/10/01 07:17:05;;;;;;;13.30;2.90;;;15.50;99.90;;;;;;4995645;28;20206;-80
2022/10/01 07:19:32;;;;;;;15.65;2.90;;;15.60;99.90;;;;;;4994936;28;20295;-81
2022/10/01 07:22:00;;;;;;;16.27;3.28;;;15.60;99.90;;;;;;4994375;28;20206;-84
2022/10/01 07:24:27;;;;;;;13.90;2.87;;;15.70;99.90;;;;;;4993829;28;20227;-82
2022/10/01 07:26:54;;;;;;;14.53;2.80;;;15.70;99.90;;;;;;4994695;28;20231;-82
2022/10/01 07:29:23;;;;;;;13.03;2.73;;;15.70;99.90;;;;;;5005260;28;20261;-82
2022/10/01 07:31:50;;;;;;;15.70;3.75;;;15.70;99.90;;;;;;5014531;28;20231;-83
2022/10/01 07:34:17;;;;;;;12.17;3.50;;;15.70;99.90;;;;;;5014016;28;20195;-83
2022/10/01 07:36:44;;;;;;;17.63;3.90;;;15.70;99.90;;;;;;5011665;28;20204;-81
2022/10/01 07:39:13;;;;;;;11.90;2.53;;;15.70;99.90;;;;;;4994364;28;20685;-82
2022/10/01 07:41:39;;;;;;;20.52;3.33;;;15.70;99.90;;;;;;4994941;28;20596;-83
2022/10/01 07:44:06;;;;;;;13.85;3.00;;;15.80;99.90;;;;;;4994761;28;20216;-83
2022/10/01 07:46:33;;;;;;;12.17;2.97;;;15.80;99.90;;;;;;4994504;28;20232;-83
2022/10/01 07:49:00;;;;;;;12.80;2.67;;;15.80;99.90;;;;;;4994638;28;20294;-83
2022/10/01 07:51:27;;;;;;;16.37;3.10;;;15.80;99.90;;;;;;5006768;28;20228;-81
2022/10/01 07:53:54;;;;;;;15.50;3.03;;;15.80;99.90;;;;;;5015003;28;20199;-82
2022/10/01 07:56:22;;;;;;;11.02;2.40;;;15.80;99.90;;;;;;5014675;28;20282;-82
2022/10/01 07:58:50;;;;;;;10.00;2.50;;;15.80;99.90;;;;;;5010410;28;20671;-82
2022/10/01 08:01:17;;;;;;;13.63;3.27;;;15.80;99.90;;;;;;4994684;28;20236;-81
2022/10/01 08:03:44;;;;;;;10.73;2.77;;;15.80;99.90;;;;;;4995210;28;20298;-81
2022/10/01 08:06:12;;;;;;;11.85;3.38;;;15.80;99.90;;;;;;4994537;28;20287;-78
2022/10/01 08:08:39;;;;;;;11.02;3.28;;;15.90;99.90;;;;;;4994373;28;20200;-82
2022/10/01 08:11:08;;;;;;;12.25;2.92;;;15.90;99.90;;;;;;4995004;28;20279;-84
2022/10/01 08:13:37;;;;;;;11.93;3.50;;;16.00;99.90;;;;;;4994832;28;20204;-82
2022/10/01 08:16:06;;;;;;;14.20;3.13;;;16.00;99.90;;;;;;5015121;28;20203;-82
2022/10/01 08:18:33;;;;;;;13.88;2.90;;;16.00;99.90;;;;;;5014914;28;20540;-86
2022/10/01 08:21:00;;;;;;;12.52;2.97;;;16.00;99.90;;;;;;5006606;28;20215;-82
2022/10/01 08:23:28;;;;;;;12.30;2.77;;;16.00;99.90;;;;;;4993880;28;20307;-82
2022/10/01 08:26:00;;;;;;;12.27;3.05;;;15.90;99.90;;;;;;4995235;28;20283;-83
2022/10/01 08:28:26;;;;;;;9.73;2.42;;;16.00;99.90;;;;;;4994002;28;20674;-83
2022/10/01 08:30:56;;;;;;;11.27;2.85;;;16.10;99.90;;;;;;4993253;28;20200;-84
2022/10/01 08:33:23;;;;;;;10.73;2.20;;;16.10;99.90;;;;;;4994977;28;20568;-84
2022/10/01 08:35:50;;;;;;;9.25;2.50;;;16.20;99.90;;;;;;4998134;28;20207;-83
2022/10/01 08:38:18;;;;;;;10.88;3.08;;;16.10;99.90;;;;;;5014057;28;20219;-82
2022/10/01 08:40:47;;;;;;;12.67;2.40;;;16.10;99.90;;;;;;5013384;28;20532;-85
2022/10/01 08:43:28;;;;;;;14.73;3.07;;;16.00;99.90;;;;;;5014047;28;20285;-87
2022/10/01 08:46:00;;;;;;;9.32;2.25;;;16.00;99.90;;;;;;5004873;28;20203;-87
2022/10/01 08:48:45;;;;;;;15.18;2.72;;;16.00;99.90;;;;;;4995327;28;20204;-83
2022/10/01 08:51:20;;;;;;;12.95;3.42;;;16.10;99.90;;;;;;4994582;28;20203;-83
2022/10/01 08:53:51;;;;;;;11.88;3.05;;;16.10;99.90;;;;;;4995023;28;20199;-85
2022/10/01 08:56:22;;;;;;;9.75;2.80;;;16.10;99.90;;;;;;4994391;28;20200;-84
2022/10/01 08:58:57;;;;;;;11.83;3.37;;;16.10;99.90;;;;;;4996017;28;20308;-84
2022/10/01 09:01:25;;;;;;;14.43;2.90;;;16.10;99.90;;;;;;5014659;28;20246;-86
2022/10/01 09:03:53;;;;;;;11.98;2.70;;;16.20;99.90;;;;;;5014078;28;20219;-83
2022/10/01 09:06:24;;;;;;;14.18;3.10;;;16.20;99.90;;;;;;5014329;28;20230;-85
2022/10/01 09:09:03;;;;;;;20.25;3.20;;;16.30;99.90;;;;;;5008908;28;20216;-85
2022/10/01 09:11:58;;;;;;;18.33;4.30;;;16.40;99.90;;;;;;4995366;28;20355;-84
2022/10/01 09:14:54;;;;;;;12.55;3.03;;;16.50;99.90;;;;;;4989887;28;20278;-88
2022/10/01 09:17:44;;;;;;;13.38;2.53;;;16.50;99.90;;;;;;4986200;28;20196;-87
2022/10/01 09:20:18;;;;;;;13.52;2.88;;;16.40;99.90;;;;;;4994697;28;20632;-86
2022/10/01 09:22:52;;;;;;;9.30;2.53;;;16.40;99.90;;;;;;4994324;28;20196;-85
2022/10/01 09:25:23;;;;;;;9.97;2.77;;;16.40;99.90;;;;;;4994232;28;20306;-81
2022/10/01 09:27:51;;;;;;;8.82;2.67;;;16.30;99.90;;;;;;4994076;28;20208;-80
2022/10/01 09:30:21;;;;;;;10.32;3.03;;;16.30;99.90;;;;;;4993568;28;20207;-84
2022/10/01 09:32:55;;;;;;;11.60;3.20;;;16.30;99.90;;;;;;4993931;28;20192;-82
2022/10/01 09:35:35;;;;;;;13.48;3.75;;;16.50;99.90;;;;;;4993582;28;20204;-82
2022/10/01 09:38:06;;;;;;;16.40;3.28;;;16.50;99.90;;;;;;4993180;28;20727;-81
2022/10/01 09:40:42;;;;;;;14.73;2.83;;;16.60;99.90;;;;;;4993599;28;20787;-83
2022/10/01 09:43:11;;;;;;;12.70;3.53;;;16.70;99.90;;;;;;4996097;28;20191;-81
2022/10/01 09:45:38;;;;;;;9.80;2.80;;;16.90;99.90;;;;;;5016097;28;20646;-86
2022/10/01 09:48:20;;;;;;;15.48;3.13;;;17.00;99.90;;;;;;5010162;28;20200;-81
2022/10/01 09:50:53;;;;;;;13.93;2.70;;;17.00;99.90;;;;;;4997499;28;20283;-79
2022/10/01 09:53:24;;;;;;;15.23;3.38;;;17.00;99.90;;;;;;4996613;28;20203;-84
2022/10/01 09:55:54;;;;;;;9.32;2.58;;;17.20;99.90;;;;;;4997164;28;20195;-84
2022/10/01 09:58:24;;;;;;;15.85;3.00;;;17.40;99.90;;;;;;4996589;28;20227;-82
2022/10/01 10:00:52;;;;;;;15.73;3.30;;;17.50;99.90;;;;;;4980161;28;20740;-81
2022/10/01 10:03:25;;;;;;;16.58;3.40;;;17.60;99.90;;;;;;4996917;28;20290;-81
2022/10/01 10:05:53;;;;;;;13.63;2.67;;;17.60;99.90;;;;;;4996841;28;20220;-84
2022/10/01 10:08:27;;;;;;;9.55;2.47;;;17.40;99.90;;;;;;4996471;28;20227;-82
2022/10/01 10:10:59;;;;;;;11.70;3.28;;;17.30;99.90;;;;;;4997128;28;20195;-86
2022/10/01 10:13:33;;;;;;;12.82;2.72;;;17.20;99.90;;;;;;4996065;28;20230;-83
2022/10/01 10:16:09;;;;;;;11.43;2.63;;;17.10;99.90;;;;;;5001620;28;20615;-83
2022/10/01 10:18:39;;;;;;;12.75;2.90;;;17.00;99.90;;;;;;5013916;28;20286;-80
2022/10/01 10:21:15;;;;;;;12.75;2.88;;;16.90;99.90;;;;;;5014873;28;20187;-82
2022/10/01 10:23:50;;;;;;;13.93;3.05;;;16.90;99.90;;;;;;5008735;28;20215;-82
2022/10/01 10:26:21;;;;;;;15.27;2.97;;;16.80;99.90;;;;;;5015074;28;20199;-82
2022/10/01 10:28:48;;;;;;;13.02;2.90;;;16.80;99.90;;;;;;5013484;28;20200;-81
2022/10/01 10:31:18;;;;;;;11.57;2.58;;;16.90;99.90;;;;;;4994586;28;20295;-80
2022/10/01 10:33:51;;;;;;;11.45;2.33;;;17.00;99.90;;;;;;4996293;28;20303;-81
2022/10/01 10:36:19;;;;;;;14.23;3.92;;;17.10;99.90;;;;;;4996579;28;20689;-82
2022/10/01 10:38:49;;;;;;;15.90;2.35;;;17.30;99.90;;;;;;4996846;28;20247;-82
2022/10/01 10:41:24;;;;;;;12.77;2.75;;;17.60;99.90;;;;;;4996651;28;20196;-84
2022/10/01 10:43:55;;;;;;;10.13;2.88;;;17.70;99.90;;;;;;4996571;28;20239;-84
2022/10/01 10:46:26;;;;;;;13.77;2.83;;;17.90;99.90;;;;;;5006538;23;20187;-81
2022/10/01 10:49:04;;;;;;;13.73;3.15;;;18.10;99.90;;;;;;5008816;28;20212;-81
2022/10/01 10:51:43;;;;;;;9.13;2.97;;;18.20;99.90;;;;;;4995533;28;20199;-86
2022/10/01 10:54:19;;;;;;;11.75;3.30;;;18.00;99.90;;;;;;4995597;28;20192;-81
2022/10/01 10:56:53;;;;;;;10.05;2.55;;;17.90;99.90;;;;;;4996263;28;20502;-82
2022/10/01 10:59:20;;;;;;;11.13;2.83;;;17.90;99.90;;;;;;4996306;28;20224;-81
2022/10/01 11:01:51;;;;;;;16.67;3.08;;;17.80;99.90;;;;;;4995343;28;20203;-82
2022/10/01 11:04:39;;;;;;;13.10;3.05;;;17.60;99.90;;;;;;4996675;28;20266;-82
2022/10/01 11:07:06;;;;;;;16.85;3.08;;;17.60;99.90;;;;;;4996194;28;20399;-81
2022/10/01 11:09:46;;;;;;;12.25;2.53;;;17.60;99.90;;;;;;4995665;28;20203;-81
2022/10/01 11:12:23;;;;;;;15.00;3.85;;;17.50;99.90;;;;;;4996142;28;20199;-81
2022/10/01 11:15:02;;;;;;;9.82;3.03;;;17.50;99.90;;;;;;4996421;28;20234;-82
2022/10/01 11:17:48;;;;;;;14.45;2.95;;;17.50;99.90;;;;;;4995878;28;20200;-85
2022/10/01 11:20:32;;;;;;;12.70;2.38;;;17.60;99.90;;;;;;4995732;28;20207;-81
2022/10/01 11:23:14;;;;;;;10.88;2.78;;;17.70;99.90;;;;;;5014286;28;20497;-80
2022/10/01 11:25:52;;;;;;;11.45;2.53;;;17.80;99.90;;;;;;5010801;28;20222;-82
2022/10/01 11:28:37;;;;;;;11.05;3.03;;;18.00;99.90;;;;;;4994852;28;20211;-81
2022/10/01 11:31:12;;;;;;;9.70;2.67;;;18.20;99.90;;;;;;4994615;28;20479;-81
2022/10/01 11:33:46;;;;;;;9.00;2.63;;;18.10;99.90;;;;;;4994994;28;20202;-81
2022/10/01 11:36:23;;;;;;;14.98;3.22;;;18.10;99.90;;;;;;4995022;28;20203;-79
2022/10/01 11:38:57;;;;;;;11.57;2.53;;;18.20;99.90;;;;;;4994879;28;20195;-80
2022/10/01 11:41:30;;;;;;;10.32;2.80;;;18.00;99.90;;;;;;4994626;28;20204;-81
2022/10/01 11:43:59;;;;;;;15.60;4.05;;;18.00;99.90;;;;;;4994514;28;20223;-79
2022/10/01 11:46:52;;;;;;;13.27;3.47;;;18.00;99.90;;;;;;4994033;28;20302;-79
2022/10/01 11:49:39;;;;;;;18.08;3.17;;;18.00;99.90;;;;;;4994147;28;20291;-82
2022/10/01 11:52:16;;;;;;;15.10;2.65;;;18.00;99.90;;;;;;4994249;28;20220;-81
2022/10/01 11:54:54;;;;;;;10.05;2.65;;;17.90;99.90;;;;;;4994654;28;20348;-81
2022/10/01 12:00:08;;;;;;;18.83;3.35;;;18.20;99.90;;;;;;4994079;28;20199;-82
2022/10/01 12:02:45;;;;;;;12.38;2.78;;;18.30;99.90;;;;;;4994510;28;20291;-81
2022/10/01 12:05:16;;;;;;;9.75;2.70;;;18.40;99.90;;;;;;4993087;28;20711;-81
2022/10/01 12:07:49;;;;;;;9.27;2.40;;;18.50;99.90;;;;;;4994595;28;20208;-81
2022/10/01 12:10:29;;;;;;;12.13;2.92;;;18.60;89.40;;;;;;4993960;28;20280;-84
2022/10/01 12:13:01;;;;;;;12.38;3.17;;;18.60;98.40;;;;;;4993925;28;20184;-81
2022/10/01 12:15:32;;;;;;;11.65;2.33;;;18.60;75.20;;;;;;4994911;28;20254;-83
2022/10/01 12:18:05;;;;;;;10.40;2.65;;;18.40;99.90;;;;;;4994142;28;20180;-82
2022/10/01 12:20:36;;;;;;;8.00;2.47;;;18.40;99.90;;;;;;4994054;28;20232;-82
2022/10/01 12:23:10;;;;;;;12.88;2.30;;;18.40;96.50;;;;;;4995180;28;20501;-84
2022/10/01 12:25:45;;;;;;;7.00;2.50;;;18.40;99.90;;;;;;4995331;28;20224;-83
2022/10/01 12:28:16;;;;;;;15.43;2.95;;;18.40;99.90;;;;;;5008131;28;20302;-85
2022/10/01 12:30:50;;;;;;;10.63;2.88;;;18.30;99.90;;;;;;5014572;28;20619;-85
2022/10/01 12:33:51;;;;;;;14.55;3.45;;;18.30;93.10;;;;;;5013438;28;20687;-84
2022/10/01 12:36:25;;;;;;;19.00;3.72;;;18.30;77.90;;;;;;5007326;28;20211;-82
2022/10/01 12:39:06;;;;;;;11.23;2.67;;;18.30;99.90;;;;;;5014238;28;20194;-83
2022/10/01 12:41:45;;;;;;;12.13;3.47;;;18.40;99.90;;;;;;5013516;28;20202;-81
2022/10/01 12:44:35;;;;;;;13.63;2.78;;;18.50;99.90;;;;;;5013981;28;20191;-83
2022/10/01 12:47:17;;;;;;;11.35;3.13;;;18.60;99.90;;;;;;4992476;28;20315;-82
2022/10/01 12:49:49;;;;;;;15.35;2.92;;;18.60;99.90;;;;;;5008163;28;20204;-86
2022/10/01 12:52:22;;;;;;;13.30;3.20;;;18.50;99.90;;;;;;5013444;28;20249;-86
2022/10/01 12:55:14;;;;;;;13.98;3.30;;;18.30;99.90;;;;;;5013453;28;20230;-82
2022/10/01 12:57:50;;;;;;;14.30;3.33;;;18.10;99.90;;;;;;5007656;28;20227;-86
2022/10/01 13:00:20;;;;;;;10.75;3.58;;;17.80;99.90;;;;;;4999451;28;20767;-83
2022/10/01 13:03:18;;;;;;;15.10;3.47;;;17.70;99.90;;;;;;5007456;28;20199;-81
2022/10/01 13:05:58;;;;;;;13.73;2.55;;;17.80;99.90;;;;;;5005350;28;20235;-83